sensor_id;sensor_type;location;lat;lon;timestamp;pressure;altitude;pressure_sealevel;temperature;humidity
13732;BME280;6937;56.096;12.664;2022-11-15T00:00:48;101758.28;;;9.44;100.00
13732;BME280;6937;56.096;12.664;2022-11-15T00:03:15;101752.84;;;9.46;100.00
13732;BME280;6937;56.096;12.664;2022-11-15T00:05:40;101704.75;;;9.30;100.00
13732;BME280;6937;56.096;12.664;2022-11-15T00:08:06;101741.56;;;9.41;100.00
13732;BME280;6937;56.096;12.664;2022-11-15T00:10:31;101737.00;;;9.43;100.00
13732;BME280;6937;56.096;12.664;2022-11-15T00:12:56;101749.56;;;9.41;100.00
13732;BME280;6937;56.096;12.664;2022-11-15T00:15:22;101772.38;;;9.46;100.00
13732;BME280;6937;56.096;12.664;2022-11-15T00:17:50;101761.38;;;9.52;100.00
13732;BME280;6937;56.096;12.664;2022-11-15T00:20:17;101738.50;;;9.48;100.00
13732;BME280;6937;56.096;12.664;2022-11-15T00:22:42;101743.84;;;9.48;100.00
13732;BME280;6937;56.096;12.664;2022-11-15T00:25:08;101742.28;;;9.44;100.00
13732;BME280;6937;56.096;12.664;2022-11-15T00:27:33;101726.03;;;9.32;100.00
13732;BME280;6937;56.096;12.664;2022-11-15T00:30:00;101774.81;;;9.51;100.00
13732;BME280;6937;56.096;12.664;2022-11-15T00:32:25;101775.53;;;9.54;100.00
13732;BME280;6937;56.096;12.664;2022-11-15T00:34:50;101731.91;;;9.38;100.00
13732;BME280;6937;56.096;12.664;2022-11-15T00:37:16;101796.66;;;9.59;100.00
13732;BME280;6937;56.096;12.664;2022-11-15T00:39:41;101774.81;;;9.51;100.00
13732;BME280;6937;56.096;12.664;2022-11-15T00:42:06;101761.16;;;9.57;100.00
13732;BME280;6937;56.096;12.664;2022-11-15T00:44:32;101746.09;;;9.56;100.00
13732;BME280;6937;56.096;12.664;2022-11-15T00:46:57;101719.03;;;9.46;100.00
13732;BME280;6937;56.096;12.664;2022-11-15T00:49:22;101776.22;;;9.58;100.00
13732;BME280;6937;56.096;12.664;2022-11-15T00:51:48;101746.88;;;9.58;100.00
13732;BME280;6937;56.096;12.664;2022-11-15T00:54:13;101695.19;;;9.43;100.00
13732;BME280;6937;56.096;12.664;2022-11-15T00:56:38;101742.63;;;9.54;100.00
13732;BME280;6937;56.096;12.664;2022-11-15T00:59:04;101747.03;;;9.55;100.00
13732;BME280;6937;56.096;12.664;2022-11-15T01:01:29;101734.69;;;9.52;100.00
13732;BME280;6937;56.096;12.664;2022-11-15T01:03:54;101734.00;;;9.49;100.00
13732;BME280;6937;56.096;12.664;2022-11-15T01:06:20;101748.44;;;9.45;100.00
13732;BME280;6937;56.096;12.664;2022-11-15T01:08:45;101761.84;;;9.60;100.00
13732;BME280;6937;56.096;12.664;2022-11-15T01:11:11;101757.63;;;9.56;100.00
13732;BME280;6937;56.096;12.664;2022-11-15T01:13:38;101761.16;;;9.57;100.00
13732;BME280;6937;56.096;12.664;2022-11-15T01:16:12;101763.66;;;9.60;100.00
13732;BME280;6937;56.096;12.664;2022-11-15T01:18:38;101784.19;;;9.59;100.00
13732;BME280;6937;56.096;12.664;2022-11-15T01:21:06;101784.00;;;9.62;100.00
13732;BME280;6937;56.096;12.664;2022-11-15T01:23:31;101753.16;;;9.57;100.00
13732;BME280;6937;56.096;12.664;2022-11-15T01:26:01;101716.69;;;9.40;100.00
13732;BME280;6937;56.096;12.664;2022-11-15T01:28:35;101768.28;;;9.56;100.00
13732;BME280;6937;56.096;12.664;2022-11-15T01:31:03;101755.81;;;9.57;100.00
13732;BME280;6937;56.096;12.664;2022-11-15T01:33:29;101748.78;;;9.56;100.00
13732;BME280;6937;56.096;12.664;2022-11-15T01:35:55;101753.25;;;9.55;100.00
13732;BME280;6937;56.096;12.664;2022-11-15T01:38:21;101717.38;;;9.44;100.00
13732;BME280;6937;56.096;12.664;2022-11-15T01:40:47;101735.44;;;9.56;100.00
13732;BME280;6937;56.096;12.664;2022-11-15T01:43:32;101744.84;;;9.63;100.00
13732;BME280;6937;56.096;12.664;2022-11-15T01:48:47;101630.72;;;9.51;100.00
13732;BME280;6937;56.096;12.664;2022-11-15T01:51:16;101657.25;;;9.54;100.00
13732;BME280;6937;56.096;12.664;2022-11-15T01:53:45;101665.63;;;9.63;100.00
13732;BME280;6937;56.096;12.664;2022-11-15T01:56:20;101663.78;;;9.64;100.00
13732;BME280;6937;56.096;12.664;2022-11-15T01:58:48;101622.81;;;9.65;100.00
13732;BME280;6937;56.096;12.664;2022-11-15T02:01:14;101588.78;;;9.53;100.00
13732;BME280;6937;56.096;12.664;2022-11-15T02:03:46;101572.22;;;9.63;100.00
13732;BME280;6937;56.096;12.664;2022-11-15T02:06:14;101558.06;;;9.61;100.00
13732;BME280;6937;56.096;12.664;2022-11-15T02:08:39;101544.72;;;9.61;100.00
13732;BME280;6937;56.096;12.664;2022-11-15T02:11:08;101535.44;;;9.53;100.00
13732;BME280;6937;56.096;12.664;2022-11-15T02:13:34;101538.28;;;9.65;100.00
13732;BME280;6937;56.096;12.664;2022-11-15T02:16:13;101501.97;;;9.63;100.00
13732;BME280;6937;56.096;12.664;2022-11-15T02:18:48;101486.19;;;9.58;100.00
13732;BME280;6937;56.096;12.664;2022-11-15T02:21:22;101456.91;;;9.57;100.00
13732;BME280;6937;56.096;12.664;2022-11-15T02:24:10;101487.75;;;9.62;100.00
13732;BME280;6937;56.096;12.664;2022-11-15T02:32:18;101451.13;;;9.64;100.00
13732;BME280;6937;56.096;12.664;2022-11-15T02:37:21;101411.91;;;9.66;100.00
13732;BME280;6937;56.096;12.664;2022-11-15T02:42:26;101355.19;;;9.63;100.00
13732;BME280;6937;56.096;12.664;2022-11-15T02:45:15;101330.75;;;9.55;100.00
13732;BME280;6937;56.096;12.664;2022-11-15T02:47:44;101305.06;;;9.52;100.00
13732;BME280;6937;56.096;12.664;2022-11-15T02:50:14;101300.56;;;9.68;100.00
13732;BME280;6937;56.096;12.664;2022-11-15T02:52:41;101300.28;;;9.73;100.00
13732;BME280;6937;56.096;12.664;2022-11-15T02:55:32;101302.09;;;9.73;100.00
13732;BME280;6937;56.096;12.664;2022-11-15T03:06:45;101225.81;;;9.68;100.00
13732;BME280;6937;56.096;12.664;2022-11-15T03:09:43;101206.66;;;9.76;100.00
13732;BME280;6937;56.096;12.664;2022-11-15T03:12:30;101167.50;;;9.62;100.00
13732;BME280;6937;56.096;12.664;2022-11-15T03:15:31;101162.22;;;9.75;100.00
13732;BME280;6937;56.096;12.664;2022-11-15T03:18:01;101146.69;;;9.67;100.00
13732;BME280;6937;56.096;12.664;2022-11-15T03:20:29;101129.28;;;9.62;100.00
13732;BME280;6937;56.096;12.664;2022-11-15T03:22:58;101165.50;;;9.80;100.00
13732;BME280;6937;56.096;12.664;2022-11-15T03:25:26;101183.97;;;9.83;100.00
13732;BME280;6937;56.096;12.664;2022-11-15T03:27:55;101165.28;;;9.83;100.00
13732;BME280;6937;56.096;12.664;2022-11-15T03:30:22;101137.72;;;9.83;100.00
13732;BME280;6937;56.096;12.664;2022-11-15T03:32:58;101097.03;;;9.79;100.00
13732;BME280;6937;56.096;12.664;2022-11-15T03:35:27;101083.03;;;9.76;100.00
13732;BME280;6937;56.096;12.664;2022-11-15T03:40:39;101094.28;;;9.81;100.00
13732;BME280;6937;56.096;12.664;2022-11-15T03:43:15;101079.31;;;9.78;100.00
13732;BME280;6937;56.096;12.664;2022-11-15T03:45:50;101053.78;;;9.74;100.00
13732;BME280;6937;56.096;12.664;2022-11-15T03:48:30;101061.78;;;9.74;100.00
13732;BME280;6937;56.096;12.664;2022-11-15T03:50:58;101092.75;;;9.77;100.00
13732;BME280;6937;56.096;12.664;2022-11-15T03:53:23;101074.84;;;9.64;100.00
13732;BME280;6937;56.096;12.664;2022-11-15T03:55:49;101117.44;;;9.80;100.00
13732;BME280;6937;56.096;12.664;2022-11-15T03:58:14;101086.09;;;9.69;100.00
13732;BME280;6937;56.096;12.664;2022-11-15T04:00:40;101068.28;;;9.70;100.00
13732;BME280;6937;56.096;12.664;2022-11-15T04:03:05;101081.31;;;9.60;100.00
13732;BME280;6937;56.096;12.664;2022-11-15T04:05:30;101158.72;;;9.75;100.00
13732;BME280;6937;56.096;12.664;2022-11-15T04:07:56;101145.56;;;9.71;100.00
13732;BME280;6937;56.096;12.664;2022-11-15T04:10:21;101139.94;;;9.62;100.00
13732;BME280;6937;56.096;12.664;2022-11-15T04:12:46;101148.03;;;9.60;100.00
13732;BME280;6937;56.096;12.664;2022-11-15T04:15:23;101162.44;;;9.72;100.00
13732;BME280;6937;56.096;12.664;2022-11-15T04:17:56;101174.06;;;9.71;100.00
13732;BME280;6937;56.096;12.664;2022-11-15T04:20:24;101195.31;;;9.73;100.00
13732;BME280;6937;56.096;12.664;2022-11-15T04:23:22;101191.91;;;9.70;100.00
13732;BME280;6937;56.096;12.664;2022-11-15T04:26:16;101207.06;;;9.70;100.00
13732;BME280;6937;56.096;12.664;2022-11-15T04:28:42;101212.47;;;9.68;100.00
13732;BME280;6937;56.096;12.664;2022-11-15T04:31:27;101240.88;;;9.69;100.00
13732;BME280;6937;56.096;12.664;2022-11-15T04:33:53;101228.75;;;9.64;100.00
13732;BME280;6937;56.096;12.664;2022-11-15T04:36:19;101261.09;;;9.74;100.00
13732;BME280;6937;56.096;12.664;2022-11-15T04:39:03;101248.50;;;9.76;100.00
13732;BME280;6937;56.096;12.664;2022-11-15T04:41:29;101217.72;;;9.70;100.00
13732;BME280;6937;56.096;12.664;2022-11-15T04:43:54;101237.28;;;9.70;100.00
13732;BME280;6937;56.096;12.664;2022-11-15T04:46:20;101270.13;;;9.71;100.00
13732;BME280;6937;56.096;12.664;2022-11-15T04:48:45;101273.19;;;9.65;100.00
13732;BME280;6937;56.096;12.664;2022-11-15T04:51:11;101264.81;;;9.71;100.00
13732;BME280;6937;56.096;12.664;2022-11-15T04:53:36;101268.06;;;9.76;100.00
13732;BME280;6937;56.096;12.664;2022-11-15T04:56:01;101247.56;;;9.77;100.00
13732;BME280;6937;56.096;12.664;2022-11-15T04:58:27;101201.72;;;9.70;100.00
13732;BME280;6937;56.096;12.664;2022-11-15T05:00:52;101119.81;;;9.56;100.00
13732;BME280;6937;56.096;12.664;2022-11-15T05:03:17;101110.19;;;9.68;100.00
13732;BME280;6937;56.096;12.664;2022-11-15T05:06:02;101083.50;;;9.68;100.00
13732;BME280;6937;56.096;12.664;2022-11-15T05:08:27;101064.84;;;9.54;100.00
13732;BME280;6937;56.096;12.664;2022-11-15T05:10:52;101025.03;;;9.51;100.00
13732;BME280;6937;56.096;12.664;2022-11-15T05:13:18;101036.75;;;9.62;100.00
13732;BME280;6937;56.096;12.664;2022-11-15T05:15:43;101033.66;;;9.68;100.00
13732;BME280;6937;56.096;12.664;2022-11-15T05:18:09;101046.16;;;9.68;100.00
13732;BME280;6937;56.096;12.664;2022-11-15T05:20:34;101017.44;;;9.71;100.00
13732;BME280;6937;56.096;12.664;2022-11-15T05:23:00;100992.78;;;9.68;100.00
13732;BME280;6937;56.096;12.664;2022-11-15T05:25:25;101006.88;;;9.70;100.00
13732;BME280;6937;56.096;12.664;2022-11-15T05:27:51;100975.09;;;9.53;100.00
13732;BME280;6937;56.096;12.664;2022-11-15T05:30:17;100942.97;;;9.54;100.00
13732;BME280;6937;56.096;12.664;2022-11-15T05:32:43;100930.50;;;9.55;100.00
13732;BME280;6937;56.096;12.664;2022-11-15T05:35:13;100946.66;;;9.66;100.00
13732;BME280;6937;56.096;12.664;2022-11-15T05:37:40;100933.16;;;9.55;100.00
13732;BME280;6937;56.096;12.664;2022-11-15T05:40:06;100954.53;;;9.67;100.00
13732;BME280;6937;56.096;12.664;2022-11-15T05:42:31;100948.75;;;9.61;100.00
13732;BME280;6937;56.096;12.664;2022-11-15T05:44:58;100968.75;;;9.68;100.00
13732;BME280;6937;56.096;12.664;2022-11-15T05:47:26;100965.22;;;9.67;100.00
13732;BME280;6937;56.096;12.664;2022-11-15T05:49:54;100967.50;;;9.74;100.00
13732;BME280;6937;56.096;12.664;2022-11-15T05:52:23;100916.88;;;9.59;100.00
13732;BME280;6937;56.096;12.664;2022-11-15T05:54:50;100922.53;;;9.67;100.00
13732;BME280;6937;56.096;12.664;2022-11-15T05:57:16;100883.50;;;9.52;100.00
13732;BME280;6937;56.096;12.664;2022-11-15T05:59:42;100907.28;;;9.69;100.00
13732;BME280;6937;56.096;12.664;2022-11-15T06:02:09;100917.84;;;9.71;100.00
13732;BME280;6937;56.096;12.664;2022-11-15T06:04:35;100881.31;;;9.59;100.00
13732;BME280;6937;56.096;12.664;2022-11-15T06:07:00;100898.97;;;9.74;100.00
13732;BME280;6937;56.096;12.664;2022-11-15T06:09:25;100884.66;;;9.75;100.00
13732;BME280;6937;56.096;12.664;2022-11-15T06:11:51;100869.81;;;9.71;100.00
13732;BME280;6937;56.096;12.664;2022-11-15T06:14:16;100863.50;;;9.72;100.00
13732;BME280;6937;56.096;12.664;2022-11-15T06:16:41;100874.09;;;9.74;100.00
13732;BME280;6937;56.096;12.664;2022-11-15T06:19:07;100828.38;;;9.65;100.00
13732;BME280;6937;56.096;12.664;2022-11-15T06:21:32;100826.78;;;9.63;100.00
13732;BME280;6937;56.096;12.664;2022-11-15T06:23:58;100837.34;;;9.64;100.00
13732;BME280;6937;56.096;12.664;2022-11-15T06:26:23;100826.16;;;9.59;100.00
13732;BME280;6937;56.096;12.664;2022-11-15T06:28:48;100836.16;;;9.56;100.00
13732;BME280;6937;56.096;12.664;2022-11-15T06:31:14;100852.69;;;9.61;100.00
13732;BME280;6937;56.096;12.664;2022-11-15T06:33:40;100865.19;;;9.60;100.00
13732;BME280;6937;56.096;12.664;2022-11-15T06:36:07;100888.16;;;9.63;100.00
13732;BME280;6937;56.096;12.664;2022-11-15T06:38:34;100901.59;;;9.61;100.00
13732;BME280;6937;56.096;12.664;2022-11-15T06:41:03;100884.94;;;9.58;100.00
13732;BME280;6937;56.096;12.664;2022-11-15T06:43:29;100893.16;;;9.55;100.00
13732;BME280;6937;56.096;12.664;2022-11-15T06:45:55;100939.91;;;9.60;100.00
13732;BME280;6937;56.096;12.664;2022-11-15T06:48:20;100963.19;;;9.58;100.00
13732;BME280;6937;56.096;12.664;2022-11-15T06:50:57;100970.75;;;9.64;100.00
13732;BME280;6937;56.096;12.664;2022-11-15T06:53:23;100962.97;;;9.61;100.00
13732;BME280;6937;56.096;12.664;2022-11-15T06:55:49;100921.63;;;9.54;100.00
13732;BME280;6937;56.096;12.664;2022-11-15T06:58:15;100932.31;;;9.54;100.00
13732;BME280;6937;56.096;12.664;2022-11-15T07:00:40;100919.72;;;9.56;100.00
13732;BME280;6937;56.096;12.664;2022-11-15T07:03:06;100912.78;;;9.54;100.00
13732;BME280;6937;56.096;12.664;2022-11-15T07:05:31;100902.00;;;9.55;100.00
13732;BME280;6937;56.096;12.664;2022-11-15T07:07:57;100900.28;;;9.54;100.00
13732;BME280;6937;56.096;12.664;2022-11-15T07:10:24;100886.31;;;9.51;100.00
13732;BME280;6937;56.096;12.664;2022-11-15T07:12:51;100900.38;;;9.53;100.00
13732;BME280;6937;56.096;12.664;2022-11-15T07:15:17;100893.94;;;9.43;100.00
13732;BME280;6937;56.096;12.664;2022-11-15T07:17:43;100911.06;;;9.53;100.00
13732;BME280;6937;56.096;12.664;2022-11-15T07:20:09;100928.69;;;9.55;100.00
13732;BME280;6937;56.096;12.664;2022-11-15T07:22:34;100940.41;;;9.53;100.00
13732;BME280;6937;56.096;12.664;2022-11-15T07:25:00;100895.00;;;9.40;100.00
13732;BME280;6937;56.096;12.664;2022-11-15T07:27:25;100886.38;;;9.49;100.00
13732;BME280;6937;56.096;12.664;2022-11-15T07:29:50;100923.09;;;9.46;100.00
13732;BME280;6937;56.096;12.664;2022-11-15T07:32:16;100896.69;;;9.41;100.00
13732;BME280;6937;56.096;12.664;2022-11-15T07:34:41;100887.81;;;9.55;100.00
13732;BME280;6937;56.096;12.664;2022-11-15T07:37:07;100861.44;;;9.50;100.00
13732;BME280;6937;56.096;12.664;2022-11-15T07:39:32;100852.78;;;9.47;100.00
13732;BME280;6937;56.096;12.664;2022-11-15T07:41:59;100865.91;;;9.50;100.00
13732;BME280;6937;56.096;12.664;2022-11-15T07:44:43;100875.06;;;9.46;100.00
13732;BME280;6937;56.096;12.664;2022-11-15T07:47:08;100842.81;;;9.36;100.00
13732;BME280;6937;56.096;12.664;2022-11-15T07:49:33;100843.34;;;9.41;100.00
13732;BME280;6937;56.096;12.664;2022-11-15T07:51:59;100844.78;;;9.47;100.00
13732;BME280;6937;56.096;12.664;2022-11-15T07:54:24;100841.91;;;9.50;100.00
13732;BME280;6937;56.096;12.664;2022-11-15T07:56:49;100803.03;;;9.33;100.00
13732;BME280;6937;56.096;12.664;2022-11-15T07:59:15;100818.91;;;9.35;100.00
13732;BME280;6937;56.096;12.664;2022-11-15T08:01:40;100858.66;;;9.52;100.00
13732;BME280;6937;56.096;12.664;2022-11-15T08:04:05;100863.78;;;9.55;100.00
13732;BME280;6937;56.096;12.664;2022-11-15T08:06:31;100853.88;;;9.57;100.00
13732;BME280;6937;56.096;12.664;2022-11-15T08:08:56;100834.16;;;9.59;100.00
13732;BME280;6937;56.096;12.664;2022-11-15T08:11:21;100820.91;;;9.58;100.00
13732;BME280;6937;56.096;12.664;2022-11-15T08:13:47;100820.16;;;9.56;100.00
13732;BME280;6937;56.096;12.664;2022-11-15T08:16:12;100845.97;;;9.55;100.00
13732;BME280;6937;56.096;12.664;2022-11-15T08:18:37;100827.81;;;9.60;100.00
13732;BME280;6937;56.096;12.664;2022-11-15T08:21:03;100856.03;;;9.64;100.00
13732;BME280;6937;56.096;12.664;2022-11-15T08:23:29;100855.81;;;9.67;100.00
13732;BME280;6937;56.096;12.664;2022-11-15T08:26:01;100820.59;;;9.62;100.00
13732;BME280;6937;56.096;12.664;2022-11-15T08:28:27;100833.50;;;9.68;100.00
13732;BME280;6937;56.096;12.664;2022-11-15T08:30:53;100856.78;;;9.66;100.00
13732;BME280;6937;56.096;12.664;2022-11-15T08:33:18;100838.00;;;9.68;100.00
13732;BME280;6937;56.096;12.664;2022-11-15T08:35:44;100829.03;;;9.69;100.00
13732;BME280;6937;56.096;12.664;2022-11-15T08:38:09;100832.34;;;9.73;100.00
13732;BME280;6937;56.096;12.664;2022-11-15T08:40:35;100868.63;;;9.75;100.00
13732;BME280;6937;56.096;12.664;2022-11-15T08:43:00;100864.47;;;9.71;100.00
13732;BME280;6937;56.096;12.664;2022-11-15T08:45:28;100839.09;;;9.78;100.00
13732;BME280;6937;56.096;12.664;2022-11-15T08:47:54;100810.91;;;9.74;100.00
13732;BME280;6937;56.096;12.664;2022-11-15T08:50:19;100824.13;;;9.76;100.00
13732;BME280;6937;56.096;12.664;2022-11-15T08:52:45;100855.84;;;9.80;100.00
13732;BME280;6937;56.096;12.664;2022-11-15T08:55:10;100826.50;;;9.80;100.00
13732;BME280;6937;56.096;12.664;2022-11-15T08:57:36;100822.00;;;9.81;100.00
13732;BME280;6937;56.096;12.664;2022-11-15T09:00:02;100855.63;;;9.83;100.00
13732;BME280;6937;56.096;12.664;2022-11-15T09:02:28;100858.84;;;9.88;100.00
13732;BME280;6937;56.096;12.664;2022-11-15T09:04:53;100856.41;;;9.85;100.00
13732;BME280;6937;56.096;12.664;2022-11-15T09:07:18;100820.72;;;9.86;100.00
13732;BME280;6937;56.096;12.664;2022-11-15T09:09:44;100840.78;;;9.79;100.00
13732;BME280;6937;56.096;12.664;2022-11-15T09:12:09;100868.47;;;9.91;100.00
13732;BME280;6937;56.096;12.664;2022-11-15T09:14:35;100869.75;;;9.98;100.00
13732;BME280;6937;56.096;12.664;2022-11-15T09:17:00;100861.75;;;9.98;100.00
13732;BME280;6937;56.096;12.664;2022-11-15T09:19:26;100828.09;;;9.83;100.00
13732;BME280;6937;56.096;12.664;2022-11-15T09:21:51;100859.84;;;10.00;100.00
13732;BME280;6937;56.096;12.664;2022-11-15T09:24:17;100865.91;;;10.02;100.00
13732;BME280;6937;56.096;12.664;2022-11-15T09:26:43;100862.38;;;10.01;100.00
13732;BME280;6937;56.096;12.664;2022-11-15T09:29:08;100847.53;;;9.97;100.00
13732;BME280;6937;56.096;12.664;2022-11-15T09:31:33;100854.19;;;10.04;100.00
13732;BME280;6937;56.096;12.664;2022-11-15T09:33:59;100869.22;;;10.05;100.00
13732;BME280;6937;56.096;12.664;2022-11-15T09:36:26;100848.00;;;10.04;100.00
13732;BME280;6937;56.096;12.664;2022-11-15T09:38:51;100805.22;;;9.79;100.00
13732;BME280;6937;56.096;12.664;2022-11-15T09:44:24;100857.16;;;10.12;100.00
13732;BME280;6937;56.096;12.664;2022-11-15T09:50:06;100858.59;;;10.18;100.00
13732;BME280;6937;56.096;12.664;2022-11-15T09:52:34;100850.59;;;10.18;100.00
13732;BME280;6937;56.096;12.664;2022-11-15T09:55:02;100858.38;;;10.21;100.00
13732;BME280;6937;56.096;12.664;2022-11-15T09:57:54;100843.13;;;10.23;100.00
13732;BME280;6937;56.096;12.664;2022-11-15T10:00:31;100851.88;;;10.25;100.00
13732;BME280;6937;56.096;12.664;2022-11-15T10:05:38;100846.00;;;10.20;100.00
13732;BME280;6937;56.096;12.664;2022-11-15T10:10:47;100831.69;;;10.34;100.00
13732;BME280;6937;56.096;12.664;2022-11-15T10:13:28;100821.00;;;10.34;100.00
13732;BME280;6937;56.096;12.664;2022-11-15T10:16:16;100834.88;;;10.39;100.00
13732;BME280;6937;56.096;12.664;2022-11-15T10:24:45;100829.22;;;10.43;100.00
13732;BME280;6937;56.096;12.664;2022-11-15T10:27:12;100824.81;;;10.42;100.00
13732;BME280;6937;56.096;12.664;2022-11-15T10:29:46;100802.53;;;10.31;100.00
13732;BME280;6937;56.096;12.664;2022-11-15T10:32:14;100823.78;;;10.45;100.00
13732;BME280;6937;56.096;12.664;2022-11-15T10:34:40;100859.13;;;10.48;100.00
13732;BME280;6937;56.096;12.664;2022-11-15T10:37:05;100858.28;;;10.48;100.00
13732;BME280;6937;56.096;12.664;2022-11-15T10:39:31;100860.53;;;10.41;100.00
13732;BME280;6937;56.096;12.664;2022-11-15T10:42:15;100854.34;;;10.41;100.00
13732;BME280;6937;56.096;12.664;2022-11-15T10:44:44;100866.72;;;10.54;100.00
13732;BME280;6937;56.096;12.664;2022-11-15T10:47:28;100874.41;;;10.59;100.00
13732;BME280;6937;56.096;12.664;2022-11-15T10:49:58;100894.63;;;10.63;100.00
13732;BME280;6937;56.096;12.664;2022-11-15T10:52:24;100881.34;;;10.61;100.00
13732;BME280;6937;56.096;12.664;2022-11-15T10:57:49;100861.50;;;10.53;100.00
13732;BME280;6937;56.096;12.664;2022-11-15T11:05:40;100854.53;;;10.50;100.00
13732;BME280;6937;56.096;12.664;2022-11-15T11:08:21;100899.31;;;10.72;100.00
13732;BME280;6937;56.096;12.664;2022-11-15T11:10:55;100901.66;;;10.77;100.00
13732;BME280;6937;56.096;12.664;2022-11-15T11:13:24;100891.94;;;10.76;100.00
13732;BME280;6937;56.096;12.664;2022-11-15T11:19:02;100855.34;;;10.76;100.00
13732;BME280;6937;56.096;12.664;2022-11-15T11:21:56;100867.75;;;10.77;100.00
13732;BME280;6937;56.096;12.664;2022-11-15T11:27:46;100856.44;;;10.74;100.00
13732;BME280;6937;56.096;12.664;2022-11-15T11:30:20;100865.53;;;10.71;100.00
13732;BME280;6937;56.096;12.664;2022-11-15T11:32:54;100868.75;;;10.63;100.00
13732;BME280;6937;56.096;12.664;2022-11-15T11:35:29;100880.16;;;10.65;100.00
13732;BME280;6937;56.096;12.664;2022-11-15T11:41:19;100843.75;;;10.64;100.00
13732;BME280;6937;56.096;12.664;2022-11-15T11:44:07;100832.84;;;10.55;100.00
13732;BME280;6937;56.096;12.664;2022-11-15T11:46:48;100855.06;;;10.55;100.00
13732;BME280;6937;56.096;12.664;2022-11-15T11:51:51;100911.38;;;10.65;100.00
13732;BME280;6937;56.096;12.664;2022-11-15T11:56:48;100971.69;;;10.69;100.00
13732;BME280;6937;56.096;12.664;2022-11-15T11:59:36;100986.56;;;10.73;100.00
13732;BME280;6937;56.096;12.664;2022-11-15T12:02:12;100967.00;;;10.60;100.00
13732;BME280;6937;56.096;12.664;2022-11-15T12:04:40;100976.31;;;10.67;100.00
13732;BME280;6937;56.096;12.664;2022-11-15T12:07:11;101002.16;;;10.66;100.00
13732;BME280;6937;56.096;12.664;2022-11-15T12:09:46;100977.56;;;10.49;100.00
13732;BME280;6937;56.096;12.664;2022-11-15T12:12:29;101033.28;;;10.68;100.00
13732;BME280;6937;56.096;12.664;2022-11-15T12:17:35;101037.78;;;10.67;100.00
13732;BME280;6937;56.096;12.664;2022-11-15T12:20:15;101036.06;;;10.66;100.00
13732;BME280;6937;56.096;12.664;2022-11-15T12:22:45;101019.28;;;10.64;100.00
13732;BME280;6937;56.096;12.664;2022-11-15T12:25:23;100990.28;;;10.58;100.00
13732;BME280;6937;56.096;12.664;2022-11-15T12:30:17;101002.47;;;10.62;100.00
13732;BME280;6937;56.096;12.664;2022-11-15T12:32:56;100988.16;;;10.63;100.00
13732;BME280;6937;56.096;12.664;2022-11-15T12:35:40;100973.94;;;10.62;100.00
13732;BME280;6937;56.096;12.664;2022-11-15T12:38:11;100950.97;;;10.60;100.00
13732;BME280;6937;56.096;12.664;2022-11-15T12:41:11;100934.06;;;10.59;100.00
13732;BME280;6937;56.096;12.664;2022-11-15T12:43:39;100902.09;;;10.58;100.00
13732;BME280;6937;56.096;12.664;2022-11-15T12:46:11;100869.50;;;10.53;100.00
13732;BME280;6937;56.096;12.664;2022-11-15T12:51:03;100869.28;;;10.56;100.00
13732;BME280;6937;56.096;12.664;2022-11-15T12:53:33;100846.19;;;10.42;100.00
13732;BME280;6937;56.096;12.664;2022-11-15T13:06:51;100813.91;;;10.58;100.00
13732;BME280;6937;56.096;12.664;2022-11-15T13:14:57;100796.06;;;10.58;100.00
13732;BME280;6937;56.096;12.664;2022-11-15T13:17:53;100780.78;;;10.60;100.00
13732;BME280;6937;56.096;12.664;2022-11-15T13:25:41;100761.47;;;10.44;100.00
13732;BME280;6937;56.096;12.664;2022-11-15T13:30:51;100794.56;;;10.54;100.00
13732;BME280;6937;56.096;12.664;2022-11-15T13:33:35;100803.34;;;10.56;100.00
13732;BME280;6937;56.096;12.664;2022-11-15T13:36:05;100807.69;;;10.57;100.00
13732;BME280;6937;56.096;12.664;2022-11-15T13:38:34;100809.63;;;10.55;100.00
13732;BME280;6937;56.096;12.664;2022-11-15T13:41:16;100808.69;;;10.56;100.00
13732;BME280;6937;56.096;12.664;2022-11-15T13:43:42;100815.53;;;10.60;100.00
13732;BME280;6937;56.096;12.664;2022-11-15T13:46:27;100800.53;;;10.58;100.00
13732;BME280;6937;56.096;12.664;2022-11-15T13:49:04;100784.31;;;10.48;100.00
13732;BME280;6937;56.096;12.664;2022-11-15T13:51:33;100798.84;;;10.57;100.00
13732;BME280;6937;56.096;12.664;2022-11-15T13:54:20;100803.34;;;10.56;100.00
13732;BME280;6937;56.096;12.664;2022-11-15T13:56:53;100796.50;;;10.52;100.00
13732;BME280;6937;56.096;12.664;2022-11-15T13:59:34;100795.09;;;10.59;100.00
13732;BME280;6937;56.096;12.664;2022-11-15T14:02:12;100786.44;;;10.56;100.00
13732;BME280;6937;56.096;12.664;2022-11-15T14:04:46;100777.66;;;10.54;100.00
13732;BME280;6937;56.096;12.664;2022-11-15T14:07:24;100795.31;;;10.56;100.00
13732;BME280;6937;56.096;12.664;2022-11-15T14:09:50;100806.97;;;10.55;100.00
13732;BME280;6937;56.096;12.664;2022-11-15T14:12:31;100811.44;;;10.55;100.00
13732;BME280;6937;56.096;12.664;2022-11-15T14:14:58;100776.84;;;10.41;100.00
13732;BME280;6937;56.096;12.664;2022-11-15T14:19:56;100799.91;;;10.54;100.00
13732;BME280;6937;56.096;12.664;2022-11-15T14:22:26;100783.69;;;10.45;100.00
13732;BME280;6937;56.096;12.664;2022-11-15T14:25:51;100823.41;;;10.62;100.00
13732;BME280;6937;56.096;12.664;2022-11-15T14:30:47;100793.19;;;10.49;100.00
13732;BME280;6937;56.096;12.664;2022-11-15T14:35:50;100796.28;;;10.55;100.00
13732;BME280;6937;56.096;12.664;2022-11-15T14:38:16;100804.94;;;10.59;100.00
13732;BME280;6937;56.096;12.664;2022-11-15T14:40:42;100788.50;;;10.52;100.00
13732;BME280;6937;56.096;12.664;2022-11-15T14:43:09;100787.63;;;10.52;100.00
13732;BME280;6937;56.096;12.664;2022-11-15T14:45:35;100802.06;;;10.49;100.00